sensor_id;sensor_type;location;lat;lon;timestamp;temperature;humidity
43185;DHT22;28803;52.308;19.096;2024-02-04T00:01:00;5.70;99.90
43185;DHT22;28803;52.308;19.096;2024-02-04T00:03:48;5.70;99.90
43185;DHT22;28803;52.308;19.096;2024-02-04T00:06:16;5.60;99.90
43185;DHT22;28803;52.308;19.096;2024-02-04T00:08:43;5.70;99.90
43185;DHT22;28803;52.308;19.096;2024-02-04T00:11:10;5.60;99.90
43185;DHT22;28803;52.308;19.096;2024-02-04T00:13:39;5.70;99.90
43185;DHT22;28803;52.308;19.096;2024-02-04T00:16:06;5.70;99.90
43185;DHT22;28803;52.308;19.096;2024-02-04T00:18:34;5.70;99.90
43185;DHT22;28803;52.308;19.096;2024-02-04T00:21:01;5.70;99.90
43185;DHT22;28803;52.308;19.096;2024-02-04T00:23:28;5.70;99.90
43185;DHT22;28803;52.308;19.096;2024-02-04T00:25:56;5.70;99.90
43185;DHT22;28803;52.308;19.096;2024-02-04T00:28:23;5.60;99.90
43185;DHT22;28803;52.308;19.096;2024-02-04T00:30:50;5.70;99.90
43185;DHT22;28803;52.308;19.096;2024-02-04T00:33:22;5.70;99.90
43185;DHT22;28803;52.308;19.096;2024-02-04T00:35:49;5.70;99.90
43185;DHT22;28803;52.308;19.096;2024-02-04T00:38:21;5.70;99.90
43185;DHT22;28803;52.308;19.096;2024-02-04T00:40:49;5.80;99.90
43185;DHT22;28803;52.308;19.096;2024-02-04T00:43:16;5.90;87.20
43185;DHT22;28803;52.308;19.096;2024-02-04T00:45:44;5.90;45.90
43185;DHT22;28803;52.308;19.096;2024-02-04T00:48:11;5.90;59.90
43185;DHT22;28803;52.308;19.096;2024-02-04T00:50:39;5.90;54.00
43185;DHT22;28803;52.308;19.096;2024-02-04T00:53:07;5.90;38.30
43185;DHT22;28803;52.308;19.096;2024-02-04T00:55:34;6.00;14.60
43185;DHT22;28803;52.308;19.096;2024-02-04T00:58:01;6.00;8.90
43185;DHT22;28803;52.308;19.096;2024-02-04T01:00:29;6.00;25.30
43185;DHT22;28803;52.308;19.096;2024-02-04T01:02:57;6.10;1.00
43185;DHT22;28803;52.308;19.096;2024-02-04T01:05:25;6.10;1.00
43185;DHT22;28803;52.308;19.096;2024-02-04T01:07:52;6.20;1.00
43185;DHT22;28803;52.308;19.096;2024-02-04T01:10:19;6.30;1.00
43185;DHT22;28803;52.308;19.096;2024-02-04T01:12:47;6.20;1.00
43185;DHT22;28803;52.308;19.096;2024-02-04T01:15:14;6.20;1.00
43185;DHT22;28803;52.308;19.096;2024-02-04T01:17:41;6.20;1.00
43185;DHT22;28803;52.308;19.096;2024-02-04T01:20:09;6.20;1.00
43185;DHT22;28803;52.308;19.096;2024-02-04T01:22:37;6.20;1.00
43185;DHT22;28803;52.308;19.096;2024-02-04T01:25:04;6.20;10.60
43185;DHT22;28803;52.308;19.096;2024-02-04T01:27:32;6.10;1.00
43185;DHT22;28803;52.308;19.096;2024-02-04T01:29:59;6.10;23.60
43185;DHT22;28803;52.308;19.096;2024-02-04T01:32:26;6.10;86.00
43185;DHT22;28803;52.308;19.096;2024-02-04T01:34:53;6.10;99.90
43185;DHT22;28803;52.308;19.096;2024-02-04T01:37:21;6.20;1.00
43185;DHT22;28803;52.308;19.096;2024-02-04T01:39:48;6.20;64.60
43185;DHT22;28803;52.308;19.096;2024-02-04T01:42:16;6.20;84.60
43185;DHT22;28803;52.308;19.096;2024-02-04T01:44:52;6.20;48.10
43185;DHT22;28803;52.308;19.096;2024-02-04T01:47:19;6.20;62.90
43185;DHT22;28803;52.308;19.096;2024-02-04T01:49:47;6.20;64.40
43185;DHT22;28803;52.308;19.096;2024-02-04T01:52:16;6.10;1.00
43185;DHT22;28803;52.308;19.096;2024-02-04T01:54:44;6.10;66.30
43185;DHT22;28803;52.308;19.096;2024-02-04T01:57:12;6.10;26.00
43185;DHT22;28803;52.308;19.096;2024-02-04T01:59:39;6.10;99.90
43185;DHT22;28803;52.308;19.096;2024-02-04T02:02:07;6.10;99.90
43185;DHT22;28803;52.308;19.096;2024-02-04T02:04:34;6.10;99.90
43185;DHT22;28803;52.308;19.096;2024-02-04T02:07:02;6.10;99.90
43185;DHT22;28803;52.308;19.096;2024-02-04T02:09:30;6.10;8.00
43185;DHT22;28803;52.308;19.096;2024-02-04T02:12:09;6.10;98.00
43185;DHT22;28803;52.308;19.096;2024-02-04T02:14:42;6.10;91.00
43185;DHT22;28803;52.308;19.096;2024-02-04T02:17:11;6.10;81.50
43185;DHT22;28803;52.308;19.096;2024-02-04T02:19:54;6.10;87.10
43185;DHT22;28803;52.308;19.096;2024-02-04T02:25:10;6.10;90.50
43185;DHT22;28803;52.308;19.096;2024-02-04T02:27:48;6.10;86.50
43185;DHT22;28803;52.308;19.096;2024-02-04T02:30:17;6.10;82.30
43185;DHT22;28803;52.308;19.096;2024-02-04T02:32:45;6.00;42.00
43185;DHT22;28803;52.308;19.096;2024-02-04T02:35:14;6.00;52.20
43185;DHT22;28803;52.308;19.096;2024-02-04T02:40:59;6.00;69.20
43185;DHT22;28803;52.308;19.096;2024-02-04T02:43:32;6.00;77.10
43185;DHT22;28803;52.308;19.096;2024-02-04T02:46:00;6.00;47.40
43185;DHT22;28803;52.308;19.096;2024-02-04T02:48:28;5.90;27.20
43185;DHT22;28803;52.308;19.096;2024-02-04T02:50:56;5.90;69.30
43185;DHT22;28803;52.308;19.096;2024-02-04T02:53:23;5.90;59.50
43185;DHT22;28803;52.308;19.096;2024-02-04T02:55:50;5.90;57.00
43185;DHT22;28803;52.308;19.096;2024-02-04T02:58:18;5.90;76.10
43185;DHT22;28803;52.308;19.096;2024-02-04T03:00:45;5.90;46.90
43185;DHT22;28803;52.308;19.096;2024-02-04T03:03:13;5.90;60.80
43185;DHT22;28803;52.308;19.096;2024-02-04T03:05:40;5.90;70.60
43185;DHT22;28803;52.308;19.096;2024-02-04T03:08:07;5.90;83.30
43185;DHT22;28803;52.308;19.096;2024-02-04T03:10:35;5.90;59.10
43185;DHT22;28803;52.308;19.096;2024-02-04T03:13:02;5.90;99.90
43185;DHT22;28803;52.308;19.096;2024-02-04T03:15:29;5.90;44.60
43185;DHT22;28803;52.308;19.096;2024-02-04T03:17:57;5.80;99.90
43185;DHT22;28803;52.308;19.096;2024-02-04T03:20:24;5.80;29.20
43185;DHT22;28803;52.308;19.096;2024-02-04T03:22:52;5.70;93.10
43185;DHT22;28803;52.308;19.096;2024-02-04T03:25:19;5.60;71.50
43185;DHT22;28803;52.308;19.096;2024-02-04T03:27:46;5.40;99.90
43185;DHT22;28803;52.308;19.096;2024-02-04T03:30:23;5.30;99.90
43185;DHT22;28803;52.308;19.096;2024-02-04T03:32:50;5.20;99.90
43185;DHT22;28803;52.308;19.096;2024-02-04T03:35:17;5.20;99.90
43185;DHT22;28803;52.308;19.096;2024-02-04T03:37:45;5.20;99.90
43185;DHT22;28803;52.308;19.096;2024-02-04T03:40:12;5.10;99.90
43185;DHT22;28803;52.308;19.096;2024-02-04T03:42:40;5.10;99.90
43185;DHT22;28803;52.308;19.096;2024-02-04T03:45:08;5.10;99.90
43185;DHT22;28803;52.308;19.096;2024-02-04T03:47:36;5.30;99.90
43185;DHT22;28803;52.308;19.096;2024-02-04T03:50:03;5.30;99.90
43185;DHT22;28803;52.308;19.096;2024-02-04T03:52:30;5.20;99.90
43185;DHT22;28803;52.308;19.096;2024-02-04T03:54:58;5.10;99.90
43185;DHT22;28803;52.308;19.096;2024-02-04T03:57:26;5.10;99.90
43185;DHT22;28803;52.308;19.096;2024-02-04T03:59:54;5.00;99.90
43185;DHT22;28803;52.308;19.096;2024-02-04T04:02:21;5.00;99.90
43185;DHT22;28803;52.308;19.096;2024-02-04T04:04:48;4.90;99.90
43185;DHT22;28803;52.308;19.096;2024-02-04T04:07:16;4.80;99.90
43185;DHT22;28803;52.308;19.096;2024-02-04T04:09:43;4.70;99.90
43185;DHT22;28803;52.308;19.096;2024-02-04T04:12:10;4.70;99.90
43185;DHT22;28803;52.308;19.096;2024-02-04T04:14:38;4.60;99.90
43185;DHT22;28803;52.308;19.096;2024-02-04T04:17:05;4.50;99.90
43185;DHT22;28803;52.308;19.096;2024-02-04T04:19:33;4.50;99.90
43185;DHT22;28803;52.308;19.096;2024-02-04T04:22:03;4.50;99.90
43185;DHT22;28803;52.308;19.096;2024-02-04T04:24:30;4.50;99.90
43185;DHT22;28803;52.308;19.096;2024-02-04T04:26:58;4.50;99.90
43185;DHT22;28803;52.308;19.096;2024-02-04T04:29:25;4.60;99.90
43185;DHT22;28803;52.308;19.096;2024-02-04T04:31:53;4.60;99.90
43185;DHT22;28803;52.308;19.096;2024-02-04T04:34:20;4.70;99.90
43185;DHT22;28803;52.308;19.096;2024-02-04T04:36:48;4.70;99.90
43185;DHT22;28803;52.308;19.096;2024-02-04T04:39:15;4.80;99.90
43185;DHT22;28803;52.308;19.096;2024-02-04T04:41:44;4.70;99.90
43185;DHT22;28803;52.308;19.096;2024-02-04T04:44:12;4.70;99.90
43185;DHT22;28803;52.308;19.096;2024-02-04T04:46:39;4.70;99.90
43185;DHT22;28803;52.308;19.096;2024-02-04T04:49:07;4.80;99.90
43185;DHT22;28803;52.308;19.096;2024-02-04T04:51:34;4.70;99.90
43185;DHT22;28803;52.308;19.096;2024-02-04T04:54:02;4.70;99.90
43185;DHT22;28803;52.308;19.096;2024-02-04T04:56:29;4.70;99.90
43185;DHT22;28803;52.308;19.096;2024-02-04T04:58:56;4.60;99.90
43185;DHT22;28803;52.308;19.096;2024-02-04T05:01:23;4.60;99.90
43185;DHT22;28803;52.308;19.096;2024-02-04T05:03:51;4.60;99.90
43185;DHT22;28803;52.308;19.096;2024-02-04T05:06:18;4.70;99.90
43185;DHT22;28803;52.308;19.096;2024-02-04T05:08:46;4.70;99.90
43185;DHT22;28803;52.308;19.096;2024-02-04T05:11:13;4.70;99.90
43185;DHT22;28803;52.308;19.096;2024-02-04T05:13:41;4.80;99.90
43185;DHT22;28803;52.308;19.096;2024-02-04T05:16:08;4.70;99.90
43185;DHT22;28803;52.308;19.096;2024-02-04T05:18:36;4.70;99.90
43185;DHT22;28803;52.308;19.096;2024-02-04T05:21:03;4.60;99.90
43185;DHT22;28803;52.308;19.096;2024-02-04T05:23:31;4.50;99.90
43185;DHT22;28803;52.308;19.096;2024-02-04T05:26:04;4.40;99.90
43185;DHT22;28803;52.308;19.096;2024-02-04T05:28:32;4.40;99.90
43185;DHT22;28803;52.308;19.096;2024-02-04T05:31:01;4.30;99.90
43185;DHT22;28803;52.308;19.096;2024-02-04T05:33:30;4.20;99.90
43185;DHT22;28803;52.308;19.096;2024-02-04T05:35:57;4.10;99.90
43185;DHT22;28803;52.308;19.096;2024-02-04T05:38:44;4.10;99.90
43185;DHT22;28803;52.308;19.096;2024-02-04T05:41:12;4.10;99.90
43185;DHT22;28803;52.308;19.096;2024-02-04T05:43:39;4.00;99.90
43185;DHT22;28803;52.308;19.096;2024-02-04T05:46:07;4.00;99.90
43185;DHT22;28803;52.308;19.096;2024-02-04T05:48:34;4.10;99.90
43185;DHT22;28803;52.308;19.096;2024-02-04T05:51:02;4.00;99.90
43185;DHT22;28803;52.308;19.096;2024-02-04T05:53:29;3.90;99.90
43185;DHT22;28803;52.308;19.096;2024-02-04T05:55:56;3.90;99.90
43185;DHT22;28803;52.308;19.096;2024-02-04T05:58:24;3.80;99.90
43185;DHT22;28803;52.308;19.096;2024-02-04T06:00:51;3.90;99.90
43185;DHT22;28803;52.308;19.096;2024-02-04T06:03:18;3.80;99.90
43185;DHT22;28803;52.308;19.096;2024-02-04T06:05:46;3.80;99.90
43185;DHT22;28803;52.308;19.096;2024-02-04T06:08:13;3.80;99.90
43185;DHT22;28803;52.308;19.096;2024-02-04T06:10:41;3.80;99.90
43185;DHT22;28803;52.308;19.096;2024-02-04T06:13:09;3.80;99.90
43185;DHT22;28803;52.308;19.096;2024-02-04T06:15:37;3.80;99.90
43185;DHT22;28803;52.308;19.096;2024-02-04T06:18:05;3.90;99.90
43185;DHT22;28803;52.308;19.096;2024-02-04T06:20:32;3.80;99.90
43185;DHT22;28803;52.308;19.096;2024-02-04T06:23:00;3.80;99.90
43185;DHT22;28803;52.308;19.096;2024-02-04T06:25:29;3.80;99.90
43185;DHT22;28803;52.308;19.096;2024-02-04T06:27:56;3.80;99.90
43185;DHT22;28803;52.308;19.096;2024-02-04T06:30:24;3.80;99.90
43185;DHT22;28803;52.308;19.096;2024-02-04T06:32:51;3.70;99.90
43185;DHT22;28803;52.308;19.096;2024-02-04T06:35:19;3.70;99.90
43185;DHT22;28803;52.308;19.096;2024-02-04T06:37:46;3.70;99.90
43185;DHT22;28803;52.308;19.096;2024-02-04T06:40:14;3.80;99.90
43185;DHT22;28803;52.308;19.096;2024-02-04T06:42:42;3.80;99.90
43185;DHT22;28803;52.308;19.096;2024-02-04T06:45:13;3.90;99.90
43185;DHT22;28803;52.308;19.096;2024-02-04T06:47:43;3.90;99.90
43185;DHT22;28803;52.308;19.096;2024-02-04T06:50:12;3.90;99.90
43185;DHT22;28803;52.308;19.096;2024-02-04T06:52:41;4.00;99.90
43185;DHT22;28803;52.308;19.096;2024-02-04T06:55:09;4.20;99.90
43185;DHT22;28803;52.308;19.096;2024-02-04T06:57:37;4.30;99.90
43185;DHT22;28803;52.308;19.096;2024-02-04T07:00:05;4.30;99.30
43185;DHT22;28803;52.308;19.096;2024-02-04T07:02:35;4.40;99.90
43185;DHT22;28803;52.308;19.096;2024-02-04T07:05:03;4.50;99.90
43185;DHT22;28803;52.308;19.096;2024-02-04T07:07:31;4.50;99.90
43185;DHT22;28803;52.308;19.096;2024-02-04T07:09:59;4.60;85.60
43185;DHT22;28803;52.308;19.096;2024-02-04T07:12:26;4.60;68.70
43185;DHT22;28803;52.308;19.096;2024-02-04T07:14:54;4.60;79.80
43185;DHT22;28803;52.308;19.096;2024-02-04T07:17:21;4.70;92.90
43185;DHT22;28803;52.308;19.096;2024-02-04T07:19:49;4.80;52.90
43185;DHT22;28803;52.308;19.096;2024-02-04T07:22:16;4.80;11.20
43185;DHT22;28803;52.308;19.096;2024-02-04T07:24:44;4.80;76.00
43185;DHT22;28803;52.308;19.096;2024-02-04T07:27:11;4.80;99.90
43185;DHT22;28803;52.308;19.096;2024-02-04T07:29:39;4.90;87.40
43185;DHT22;28803;52.308;19.096;2024-02-04T07:32:06;4.90;94.10
43185;DHT22;28803;52.308;19.096;2024-02-04T07:34:34;5.00;99.90
43185;DHT22;28803;52.308;19.096;2024-02-04T07:37:02;5.00;99.90
43185;DHT22;28803;52.308;19.096;2024-02-04T07:39:29;5.10;99.90
43185;DHT22;28803;52.308;19.096;2024-02-04T07:41:58;5.10;99.90
43185;DHT22;28803;52.308;19.096;2024-02-04T07:44:30;5.10;99.90
43185;DHT22;28803;52.308;19.096;2024-02-04T07:46:57;5.10;99.90
43185;DHT22;28803;52.308;19.096;2024-02-04T07:49:25;5.10;99.90
43185;DHT22;28803;52.308;19.096;2024-02-04T07:52:08;5.10;99.90
43185;DHT22;28803;52.308;19.096;2024-02-04T07:54:36;5.20;99.90
43185;DHT22;28803;52.308;19.096;2024-02-04T07:57:03;5.20;99.90
43185;DHT22;28803;52.308;19.096;2024-02-04T07:59:31;5.20;99.90
43185;DHT22;28803;52.308;19.096;2024-02-04T08:01:58;5.20;99.90
43185;DHT22;28803;52.308;19.096;2024-02-04T08:04:26;5.30;99.90
43185;DHT22;28803;52.308;19.096;2024-02-04T08:06:54;5.30;99.90
43185;DHT22;28803;52.308;19.096;2024-02-04T08:09:22;5.30;99.90
43185;DHT22;28803;52.308;19.096;2024-02-04T08:11:49;5.30;99.90
43185;DHT22;28803;52.308;19.096;2024-02-04T08:14:16;5.30;99.90
43185;DHT22;28803;52.308;19.096;2024-02-04T08:16:45;5.30;99.90
43185;DHT22;28803;52.308;19.096;2024-02-04T08:19:14;5.20;99.90
43185;DHT22;28803;52.308;19.096;2024-02-04T08:21:42;5.30;99.90
43185;DHT22;28803;52.308;19.096;2024-02-04T08:24:10;5.30;99.90
43185;DHT22;28803;52.308;19.096;2024-02-04T08:26:37;5.30;99.90
43185;DHT22;28803;52.308;19.096;2024-02-04T08:29:05;5.30;99.90
43185;DHT22;28803;52.308;19.096;2024-02-04T08:31:33;5.40;99.90
43185;DHT22;28803;52.308;19.096;2024-02-04T08:34:01;5.40;99.90
43185;DHT22;28803;52.308;19.096;2024-02-04T08:36:30;5.30;99.90
43185;DHT22;28803;52.308;19.096;2024-02-04T08:38:58;5.30;99.90
43185;DHT22;28803;52.308;19.096;2024-02-04T08:41:25;5.30;99.90
43185;DHT22;28803;52.308;19.096;2024-02-04T08:43:54;5.30;99.90
43185;DHT22;28803;52.308;19.096;2024-02-04T08:46:21;5.30;99.90
43185;DHT22;28803;52.308;19.096;2024-02-04T08:48:49;5.30;99.90
43185;DHT22;28803;52.308;19.096;2024-02-04T08:51:16;5.30;28.50
43185;DHT22;28803;52.308;19.096;2024-02-04T08:53:46;5.40;26.30
43185;DHT22;28803;52.308;19.096;2024-02-04T08:56:13;5.50;61.60
43185;DHT22;28803;52.308;19.096;2024-02-04T08:58:41;5.60;37.60
43185;DHT22;28803;52.308;19.096;2024-02-04T09:01:09;5.60;75.10
43185;DHT22;28803;52.308;19.096;2024-02-04T09:03:37;5.70;48.80
43185;DHT22;28803;52.308;19.096;2024-02-04T09:06:05;5.70;1.00
43185;DHT22;28803;52.308;19.096;2024-02-04T09:08:33;5.70;1.00
43185;DHT22;28803;52.308;19.096;2024-02-04T09:11:00;5.50;8.80
43185;DHT22;28803;52.308;19.096;2024-02-04T09:13:28;5.50;24.30
43185;DHT22;28803;52.308;19.096;2024-02-04T09:15:56;5.40;18.60
43185;DHT22;28803;52.308;19.096;2024-02-04T09:18:24;5.40;17.40
43185;DHT22;28803;52.308;19.096;2024-02-04T09:20:51;5.50;99.90
43185;DHT22;28803;52.308;19.096;2024-02-04T09:23:19;5.60;99.90
43185;DHT22;28803;52.308;19.096;2024-02-04T09:25:46;5.70;99.90
43185;DHT22;28803;52.308;19.096;2024-02-04T09:28:14;5.80;99.90
43185;DHT22;28803;52.308;19.096;2024-02-04T09:30:43;5.80;99.90
43185;DHT22;28803;52.308;19.096;2024-02-04T09:33:11;5.90;99.90
43185;DHT22;28803;52.308;19.096;2024-02-04T09:35:38;5.90;99.90
43185;DHT22;28803;52.308;19.096;2024-02-04T09:38:06;6.00;47.70
43185;DHT22;28803;52.308;19.096;2024-02-04T09:40:39;6.00;93.00
43185;DHT22;28803;52.308;19.096;2024-02-04T09:43:07;6.10;92.70
43185;DHT22;28803;52.308;19.096;2024-02-04T09:45:35;6.10;87.90
43185;DHT22;28803;52.308;19.096;2024-02-04T09:48:04;6.20;4.40
43185;DHT22;28803;52.308;19.096;2024-02-04T09:50:32;6.10;33.50
43185;DHT22;28803;52.308;19.096;2024-02-04T09:53:00;6.00;34.40
43185;DHT22;28803;52.308;19.096;2024-02-04T09:55:31;6.00;63.00
43185;DHT22;28803;52.308;19.096;2024-02-04T09:57:59;5.90;92.00
43185;DHT22;28803;52.308;19.096;2024-02-04T10:00:29;5.90;96.10
43185;DHT22;28803;52.308;19.096;2024-02-04T10:02:58;5.90;99.90
43185;DHT22;28803;52.308;19.096;2024-02-04T10:05:26;5.90;99.90
43185;DHT22;28803;52.308;19.096;2024-02-04T10:07:54;5.90;99.90
43185;DHT22;28803;52.308;19.096;2024-02-04T10:10:22;5.90;99.90
43185;DHT22;28803;52.308;19.096;2024-02-04T10:12:50;5.90;99.90
43185;DHT22;28803;52.308;19.096;2024-02-04T10:15:17;6.00;99.90
43185;DHT22;28803;52.308;19.096;2024-02-04T10:17:48;6.00;35.40
43185;DHT22;28803;52.308;19.096;2024-02-04T10:20:16;6.00;91.80
43185;DHT22;28803;52.308;19.096;2024-02-04T10:22:47;5.90;46.30
43185;DHT22;28803;52.308;19.096;2024-02-04T10:25:20;5.90;50.60
43185;DHT22;28803;52.308;19.096;2024-02-04T10:27:48;5.90;54.70
43185;DHT22;28803;52.308;19.096;2024-02-04T10:30:18;6.00;31.80
43185;DHT22;28803;52.308;19.096;2024-02-04T10:32:46;6.10;73.20
43185;DHT22;28803;52.308;19.096;2024-02-04T10:35:13;6.10;1.00
43185;DHT22;28803;52.308;19.096;2024-02-04T10:37:41;6.20;1.00
43185;DHT22;28803;52.308;19.096;2024-02-04T10:40:15;6.20;1.00
43185;DHT22;28803;52.308;19.096;2024-02-04T10:42:43;6.20;1.00
43185;DHT22;28803;52.308;19.096;2024-02-04T10:45:11;6.20;1.00
43185;DHT22;28803;52.308;19.096;2024-02-04T10:47:45;6.30;10.60
43185;DHT22;28803;52.308;19.096;2024-02-04T10:50:16;6.30;39.50
43185;DHT22;28803;52.308;19.096;2024-02-04T10:52:46;6.30;1.00
43185;DHT22;28803;52.308;19.096;2024-02-04T10:55:17;6.40;27.60
43185;DHT22;28803;52.308;19.096;2024-02-04T10:57:49;6.40;10.90
43185;DHT22;28803;52.308;19.096;2024-02-04T11:00:17;6.40;22.10
43185;DHT22;28803;52.308;19.096;2024-02-04T11:02:46;6.40;42.30
43185;DHT22;28803;52.308;19.096;2024-02-04T11:05:17;6.50;75.10
43185;DHT22;28803;52.308;19.096;2024-02-04T11:07:45;6.50;63.50
43185;DHT22;28803;52.308;19.096;2024-02-04T11:10:13;6.50;33.70
43185;DHT22;28803;52.308;19.096;2024-02-04T11:12:42;6.60;75.60
43185;DHT22;28803;52.308;19.096;2024-02-04T11:15:14;6.60;21.10
43185;DHT22;28803;52.308;19.096;2024-02-04T11:21:33;6.70;99.90
43185;DHT22;28803;52.308;19.096;2024-02-04T11:26:56;6.60;95.80
43185;DHT22;28803;52.308;19.096;2024-02-04T11:29:25;6.60;99.90
43185;DHT22;28803;52.308;19.096;2024-02-04T11:31:53;6.60;99.90
43185;DHT22;28803;52.308;19.096;2024-02-04T11:34:25;6.50;99.90
43185;DHT22;28803;52.308;19.096;2024-02-04T11:36:53;6.50;99.90
43185;DHT22;28803;52.308;19.096;2024-02-04T11:39:21;6.60;99.90
43185;DHT22;28803;52.308;19.096;2024-02-04T11:41:50;6.60;73.80
43185;DHT22;28803;52.308;19.096;2024-02-04T11:44:22;6.60;69.60
43185;DHT22;28803;52.308;19.096;2024-02-04T11:46:51;6.60;99.90
43185;DHT22;28803;52.308;19.096;2024-02-04T11:49:20;6.60;99.90
43185;DHT22;28803;52.308;19.096;2024-02-04T11:51:52;6.60;49.20
43185;DHT22;28803;52.308;19.096;2024-02-04T11:54:20;6.60;91.60
43185;DHT22;28803;52.308;19.096;2024-02-04T11:56:50;6.50;67.30
43185;DHT22;28803;52.308;19.096;2024-02-04T11:59:23;6.50;77.70
43185;DHT22;28803;52.308;19.096;2024-02-04T12:01:55;6.50;72.60
43185;DHT22;28803;52.308;19.096;2024-02-04T12:04:24;6.50;74.30
43185;DHT22;28803;52.308;19.096;2024-02-04T12:06:55;6.50;7.40
43185;DHT22;28803;52.308;19.096;2024-02-04T12:09:24;6.50;8.20
43185;DHT22;28803;52.308;19.096;2024-02-04T12:11:54;6.50;1.00
43185;DHT22;28803;52.308;19.096;2024-02-04T12:14:22;6.40;15.30
43185;DHT22;28803;52.308;19.096;2024-02-04T12:16:50;6.40;1.50
43185;DHT22;28803;52.308;19.096;2024-02-04T12:19:23;6.30;6.40
43185;DHT22;28803;52.308;19.096;2024-02-04T12:21:53;6.30;1.00
43185;DHT22;28803;52.308;19.096;2024-02-04T12:24:22;6.30;8.40
43185;DHT22;28803;52.308;19.096;2024-02-04T12:26:49;6.30;23.20
43185;DHT22;28803;52.308;19.096;2024-02-04T12:29:17;6.30;39.90
43185;DHT22;28803;52.308;19.096;2024-02-04T12:31:45;6.40;7.10
43185;DHT22;28803;52.308;19.096;2024-02-04T12:34:13;6.40;18.20
43185;DHT22;28803;52.308;19.096;2024-02-04T12:36:40;6.40;39.10
43185;DHT22;28803;52.308;19.096;2024-02-04T12:39:12;6.40;1.00
43185;DHT22;28803;52.308;19.096;2024-02-04T12:41:40;6.40;1.00
43185;DHT22;28803;52.308;19.096;2024-02-04T12:44:08;6.40;1.00
43185;DHT22;28803;52.308;19.096;2024-02-04T12:46:36;6.40;1.00
43185;DHT22;28803;52.308;19.096;2024-02-04T12:49:05;6.50;1.00
43185;DHT22;28803;52.308;19.096;2024-02-04T12:51:33;6.50;1.00
43185;DHT22;28803;52.308;19.096;2024-02-04T12:54:11;6.50;1.00
43185;DHT22;28803;52.308;19.096;2024-02-04T12:56:48;6.40;1.00
43185;DHT22;28803;52.308;19.096;2024-02-04T12:59:26;6.50;1.00
43185;DHT22;28803;52.308;19.096;2024-02-04T13:01:58;6.50;1.00
43185;DHT22;28803;52.308;19.096;2024-02-04T13:04:26;6.50;1.00
43185;DHT22;28803;52.308;19.096;2024-02-04T13:07:00;6.50;1.00
43185;DHT22;28803;52.308;19.096;2024-02-04T13:09:28;6.50;1.00
43185;DHT22;28803;52.308;19.096;2024-02-04T13:12:07;6.50;1.00
43185;DHT22;28803;52.308;19.096;2024-02-04T13:14:38;6.40;1.00
43185;DHT22;28803;52.308;19.096;2024-02-04T13:17:06;6.50;1.00
43185;DHT22;28803;52.308;19.096;2024-02-04T13:19:35;6.50;43.80
43185;DHT22;28803;52.308;19.096;2024-02-04T13:22:04;6.40;1.00
43185;DHT22;28803;52.308;19.096;2024-02-04T13:24:34;6.50;1.00
43185;DHT22;28803;52.308;19.096;2024-02-04T13:27:02;6.50;34.10
43185;DHT22;28803;52.308;19.096;2024-02-04T13:29:31;6.50;11.70
43185;DHT22;28803;52.308;19.096;2024-02-04T13:31:58;6.50;28.30
43185;DHT22;28803;52.308;19.096;2024-02-04T13:34:25;6.50;43.30
43185;DHT22;28803;52.308;19.096;2024-02-04T13:36:53;6.60;9.20
43185;DHT22;28803;52.308;19.096;2024-02-04T13:39:20;6.60;1.00
43185;DHT22;28803;52.308;19.096;2024-02-04T13:41:48;6.60;22.20
43185;DHT22;28803;52.308;19.096;2024-02-04T13:44:15;6.60;15.80
43185;DHT22;28803;52.308;19.096;2024-02-04T13:46:43;6.50;96.50
43185;DHT22;28803;52.308;19.096;2024-02-04T13:49:10;6.50;85.90
43185;DHT22;28803;52.308;19.096;2024-02-04T13:51:40;6.50;99.90
43185;DHT22;28803;52.308;19.096;2024-02-04T13:54:12;6.50;1.00
43185;DHT22;28803;52.308;19.096;2024-02-04T13:56:45;6.50;1.00
43185;DHT22;28803;52.308;19.096;2024-02-04T13:59:13;6.50;1.00
43185;DHT22;28803;52.308;19.096;2024-02-04T14:01:41;6.50;1.00
43185;DHT22;28803;52.308;19.096;2024-02-04T14:04:08;6.40;1.00
43185;DHT22;28803;52.308;19.096;2024-02-04T14:06:36;6.40;1.00
43185;DHT22;28803;52.308;19.096;2024-02-04T14:09:04;6.40;1.00
43185;DHT22;28803;52.308;19.096;2024-02-04T14:11:34;6.40;1.00
43185;DHT22;28803;52.308;19.096;2024-02-04T14:14:01;6.40;1.00
43185;DHT22;28803;52.308;19.096;2024-02-04T14:16:28;6.40;1.00
43185;DHT22;28803;52.308;19.096;2024-02-04T14:18:56;6.40;1.00
43185;DHT22;28803;52.308;19.096;2024-02-04T14:21:27;6.50;1.00
43185;DHT22;28803;52.308;19.096;2024-02-04T14:23:55;6.50;1.00
43185;DHT22;28803;52.308;19.096;2024-02-04T14:26:22;6.50;1.00
43185;DHT22;28803;52.308;19.096;2024-02-04T14:28:49;6.40;1.00
43185;DHT22;28803;52.308;19.096;2024-02-04T14:31:17;6.40;1.00
43185;DHT22;28803;52.308;19.096;2024-02-04T14:33:45;6.40;1.00
43185;DHT22;28803;52.308;19.096;2024-02-04T14:36:14;6.40;1.00
43185;DHT22;28803;52.308;19.096;2024-02-04T14:38:42;6.40;1.00
43185;DHT22;28803;52.308;19.096;2024-02-04T14:41:09;6.50;1.00
43185;DHT22;28803;52.308;19.096;2024-02-04T14:43:36;6.50;1.00
43185;DHT22;28803;52.308;19.096;2024-02-04T14:46:04;6.50;1.00
43185;DHT22;28803;52.308;19.096;2024-02-04T14:48:32;6.50;1.00
43185;DHT22;28803;52.308;19.096;2024-02-04T14:50:59;6.50;1.00
43185;DHT22;28803;52.308;19.096;2024-02-04T14:53:27;6.50;1.00
43185;DHT22;28803;52.308;19.096;2024-02-04T14:55:54;6.50;1.00
43185;DHT22;28803;52.308;19.096;2024-02-04T14:58:23;6.50;1.00
43185;DHT22;28803;52.308;19.096;2024-02-04T15:00:51;6.50;1.00
43185;DHT22;28803;52.308;19.096;2024-02-04T15:03:19;6.50;1.00
43185;DHT22;28803;52.308;19.096;2024-02-04T15:05:46;6.50;1.00
43185;DHT22;28803;52.308;19.096;2024-02-04T15:08:13;6.40;1.00
43185;DHT22;28803;52.308;19.096;2024-02-04T15:10:41;6.40;1.00
43185;DHT22;28803;52.308;19.096;2024-02-04T15:13:08;6.40;1.00
43185;DHT22;28803;52.308;19.096;2024-02-04T15:15:36;6.40;1.00
43185;DHT22;28803;52.308;19.096;2024-02-04T15:18:04;6.40;1.00
43185;DHT22;28803;52.308;19.096;2024-02-04T15:20:32;6.40;1.00
43185;DHT22;28803;52.308;19.096;2024-02-04T15:23:00;6.40;1.00
43185;DHT22;28803;52.308;19.096;2024-02-04T15:25:28;6.40;1.00
43185;DHT22;28803;52.308;19.096;2024-02-04T15:27:56;6.40;1.00
43185;DHT22;28803;52.308;19.096;2024-02-04T15:30:24;6.30;1.00
43185;DHT22;28803;52.308;19.096;2024-02-04T15:32:52;6.30;1.00
43185;DHT22;28803;52.308;19.096;2024-02-04T15:35:22;6.30;1.00
43185;DHT22;28803;52.308;19.096;2024-02-04T15:37:49;6.30;1.00
43185;DHT22;28803;52.308;19.096;2024-02-04T15:40:17;6.30;1.00
43185;DHT22;28803;52.308;19.096;2024-02-04T15:42:46;6.30;1.00
43185;DHT22;28803;52.308;19.096;2024-02-04T15:45:13;6.30;1.00
43185;DHT22;28803;52.308;19.096;2024-02-04T15:47:49;6.30;1.00
43185;DHT22;28803;52.308;19.096;2024-02-04T15:50:19;6.30;1.00
43185;DHT22;28803;52.308;19.096;2024-02-04T15:52:48;6.30;1.00
43185;DHT22;28803;52.308;19.096;2024-02-04T15:55:16;6.30;1.00